sensor_id;sensor_type;location;lat;lon;timestamp;pressure;altitude;pressure_sealevel;temperature;humidity
56713;BME280;42589;45.536;9.032;2023-02-13T00:01:49;101732.03;;;12.73;34.97
56713;BME280;42589;45.536;9.032;2023-02-13T00:04:50;101737.59;;;12.70;34.93
56713;BME280;42589;45.536;9.032;2023-02-13T00:07:54;101742.31;;;12.55;35.14
56713;BME280;42589;45.536;9.032;2023-02-13T00:10:55;101724.09;;;12.49;35.52
56713;BME280;42589;45.536;9.032;2023-02-13T00:13:57;101722.44;;;12.60;35.02
56713;BME280;42589;45.536;9.032;2023-02-13T00:16:58;101741.97;;;12.60;35.17
56713;BME280;42589;45.536;9.032;2023-02-13T00:19:59;101730.16;;;12.40;35.08
56713;BME280;42589;45.536;9.032;2023-02-13T00:22:59;101737.88;;;12.32;35.12
56713;BME280;42589;45.536;9.032;2023-02-13T00:26:05;101749.31;;;12.45;35.52
56713;BME280;42589;45.536;9.032;2023-02-13T00:29:06;101737.69;;;12.46;34.76
56713;BME280;42589;45.536;9.032;2023-02-13T00:32:07;101735.75;;;12.13;35.26
56713;BME280;42589;45.536;9.032;2023-02-13T00:35:08;101738.19;;;12.16;35.03
56713;BME280;42589;45.536;9.032;2023-02-13T00:38:09;101737.34;;;12.16;35.16
56713;BME280;42589;45.536;9.032;2023-02-13T00:41:11;101757.75;;;12.28;35.12
56713;BME280;42589;45.536;9.032;2023-02-13T00:44:12;101763.09;;;12.04;35.46
56713;BME280;42589;45.536;9.032;2023-02-13T00:47:14;101752.84;;;11.87;35.56
56713;BME280;42589;45.536;9.032;2023-02-13T00:50:16;101754.84;;;11.96;35.22
56713;BME280;42589;45.536;9.032;2023-02-13T00:53:18;101759.81;;;12.00;35.35
56713;BME280;42589;45.536;9.032;2023-02-13T00:56:20;101740.88;;;11.79;35.21
56713;BME280;42589;45.536;9.032;2023-02-13T00:59:24;101761.88;;;11.84;35.56
56713;BME280;42589;45.536;9.032;2023-02-13T01:02:26;101761.72;;;11.74;35.79
56713;BME280;42589;45.536;9.032;2023-02-13T01:05:26;101758.97;;;12.00;35.13
56713;BME280;42589;45.536;9.032;2023-02-13T01:08:27;101770.25;;;12.03;34.95
56713;BME280;42589;45.536;9.032;2023-02-13T01:11:29;101774.59;;;12.04;35.24
56713;BME280;42589;45.536;9.032;2023-02-13T01:14:30;101744.09;;;11.84;35.36
56713;BME280;42589;45.536;9.032;2023-02-13T01:17:30;101766.34;;;11.96;35.26
56713;BME280;42589;45.536;9.032;2023-02-13T01:20:31;101775.91;;;12.23;34.65
56713;BME280;42589;45.536;9.032;2023-02-13T01:23:35;101765.72;;;11.93;34.91
56713;BME280;42589;45.536;9.032;2023-02-13T01:26:36;101778.63;;;12.10;34.81
56713;BME280;42589;45.536;9.032;2023-02-13T01:29:37;101758.13;;;11.62;35.56
56713;BME280;42589;45.536;9.032;2023-02-13T01:32:39;101774.50;;;12.06;35.00
56713;BME280;42589;45.536;9.032;2023-02-13T01:35:40;101774.06;;;12.12;34.80
56713;BME280;42589;45.536;9.032;2023-02-13T01:38:42;101775.94;;;11.99;35.08
56713;BME280;42589;45.536;9.032;2023-02-13T01:41:43;101766.66;;;11.92;34.85
56713;BME280;42589;45.536;9.032;2023-02-13T01:44:59;101764.44;;;11.85;35.35
56713;BME280;42589;45.536;9.032;2023-02-13T01:48:06;101758.47;;;11.82;35.68
56713;BME280;42589;45.536;9.032;2023-02-13T01:51:13;101767.53;;;11.79;35.58
56713;BME280;42589;45.536;9.032;2023-02-13T01:54:20;101767.88;;;11.75;35.17
56713;BME280;42589;45.536;9.032;2023-02-13T01:57:23;101761.31;;;11.68;35.23
56713;BME280;42589;45.536;9.032;2023-02-13T02:00:25;101766.47;;;11.58;35.84
56713;BME280;42589;45.536;9.032;2023-02-13T02:03:33;101767.47;;;11.68;35.59
56713;BME280;42589;45.536;9.032;2023-02-13T02:06:41;101772.47;;;11.73;35.79
56713;BME280;42589;45.536;9.032;2023-02-13T02:09:44;101773.50;;;11.46;35.87
56713;BME280;42589;45.536;9.032;2023-02-13T02:15:49;101750.56;;;11.20;36.13
56713;BME280;42589;45.536;9.032;2023-02-13T02:18:50;101759.34;;;11.46;35.84
56713;BME280;42589;45.536;9.032;2023-02-13T02:25:56;101771.44;;;11.62;35.93
56713;BME280;42589;45.536;9.032;2023-02-13T02:39:04;101765.03;;;11.15;36.61
56713;BME280;42589;45.536;9.032;2023-02-13T02:52:18;101758.53;;;10.94;36.93
56713;BME280;42589;45.536;9.032;2023-02-13T02:55:41;101756.00;;;10.80;37.31
56713;BME280;42589;45.536;9.032;2023-02-13T02:58:51;101763.56;;;10.60;38.02
56713;BME280;42589;45.536;9.032;2023-02-13T03:02:12;101754.72;;;10.47;37.42
56713;BME280;42589;45.536;9.032;2023-02-13T03:05:44;101763.53;;;10.48;38.39
56713;BME280;42589;45.536;9.032;2023-02-13T03:09:18;101767.81;;;10.50;37.29
56713;BME280;42589;45.536;9.032;2023-02-13T03:12:43;101758.09;;;10.49;37.56
56713;BME280;42589;45.536;9.032;2023-02-13T03:16:04;101761.50;;;10.51;37.08
56713;BME280;42589;45.536;9.032;2023-02-13T03:23:07;101732.88;;;10.42;37.64
56713;BME280;42589;45.536;9.032;2023-02-13T03:30:12;101765.47;;;10.97;36.43
56713;BME280;42589;45.536;9.032;2023-02-13T03:33:22;101769.84;;;10.98;36.32
56713;BME280;42589;45.536;9.032;2023-02-13T03:40:39;101767.41;;;10.95;35.98
56713;BME280;42589;45.536;9.032;2023-02-13T03:47:27;101741.94;;;10.52;36.18
56713;BME280;42589;45.536;9.032;2023-02-13T03:50:28;101761.94;;;10.45;36.83
56713;BME280;42589;45.536;9.032;2023-02-13T03:53:30;101767.56;;;10.40;37.11
56713;BME280;42589;45.536;9.032;2023-02-13T03:56:34;101760.25;;;10.57;36.77
56713;BME280;42589;45.536;9.032;2023-02-13T03:59:54;101756.00;;;10.54;36.70
56713;BME280;42589;45.536;9.032;2023-02-13T04:07:06;101781.44;;;10.84;36.70
56713;BME280;42589;45.536;9.032;2023-02-13T04:10:11;101749.47;;;10.45;36.55
56713;BME280;42589;45.536;9.032;2023-02-13T04:13:22;101773.97;;;10.51;36.87
56713;BME280;42589;45.536;9.032;2023-02-13T04:16:31;101782.13;;;10.35;37.05
56713;BME280;42589;45.536;9.032;2023-02-13T04:19:32;101770.22;;;10.13;37.24
56713;BME280;42589;45.536;9.032;2023-02-13T04:22:33;101764.06;;;10.13;37.15
56713;BME280;42589;45.536;9.032;2023-02-13T04:25:36;101759.25;;;10.32;36.99
56713;BME280;42589;45.536;9.032;2023-02-13T04:28:38;101786.06;;;10.42;36.78
56713;BME280;42589;45.536;9.032;2023-02-13T04:31:39;101769.59;;;10.22;37.51
56713;BME280;42589;45.536;9.032;2023-02-13T04:34:40;101759.78;;;10.10;37.05
56713;BME280;42589;45.536;9.032;2023-02-13T04:37:42;101774.81;;;10.24;37.38
56713;BME280;42589;45.536;9.032;2023-02-13T04:40:43;101754.91;;;10.17;36.89
56713;BME280;42589;45.536;9.032;2023-02-13T04:43:45;101758.84;;;10.24;36.74
56713;BME280;42589;45.536;9.032;2023-02-13T04:46:45;101747.16;;;10.14;36.88
56713;BME280;42589;45.536;9.032;2023-02-13T04:49:46;101758.78;;;10.26;36.38
56713;BME280;42589;45.536;9.032;2023-02-13T04:52:49;101761.34;;;10.27;36.63
56713;BME280;42589;45.536;9.032;2023-02-13T04:55:50;101772.94;;;10.26;36.46
56713;BME280;42589;45.536;9.032;2023-02-13T04:58:51;101772.06;;;10.26;36.95
56713;BME280;42589;45.536;9.032;2023-02-13T05:01:52;101756.25;;;9.97;36.80
56713;BME280;42589;45.536;9.032;2023-02-13T05:04:53;101762.19;;;10.00;37.31
56713;BME280;42589;45.536;9.032;2023-02-13T05:07:55;101752.53;;;9.99;37.37
56713;BME280;42589;45.536;9.032;2023-02-13T05:10:56;101747.53;;;9.68;37.14
56713;BME280;42589;45.536;9.032;2023-02-13T05:13:57;101759.53;;;10.00;37.35
56713;BME280;42589;45.536;9.032;2023-02-13T05:16:57;101728.38;;;9.90;36.66
56713;BME280;42589;45.536;9.032;2023-02-13T05:19:58;101768.75;;;9.95;37.42
56713;BME280;42589;45.536;9.032;2023-02-13T05:23:00;101757.59;;;9.90;37.19
56713;BME280;42589;45.536;9.032;2023-02-13T05:26:21;101762.81;;;9.91;36.74
56713;BME280;42589;45.536;9.032;2023-02-13T05:29:22;101760.09;;;9.79;37.45
56713;BME280;42589;45.536;9.032;2023-02-13T05:32:23;101753.75;;;9.81;36.89
56713;BME280;42589;45.536;9.032;2023-02-13T05:35:24;101763.75;;;9.90;37.45
56713;BME280;42589;45.536;9.032;2023-02-13T05:38:24;101751.34;;;9.91;36.71
56713;BME280;42589;45.536;9.032;2023-02-13T05:41:26;101765.00;;;10.12;36.88
56713;BME280;42589;45.536;9.032;2023-02-13T05:44:26;101765.66;;;10.15;36.82
56713;BME280;42589;45.536;9.032;2023-02-13T05:47:28;101754.63;;;9.94;36.36
56713;BME280;42589;45.536;9.032;2023-02-13T05:50:29;101738.13;;;9.89;36.97
56713;BME280;42589;45.536;9.032;2023-02-13T05:53:30;101766.59;;;10.14;36.07
56713;BME280;42589;45.536;9.032;2023-02-13T05:56:34;101770.31;;;9.85;37.24
56713;BME280;42589;45.536;9.032;2023-02-13T05:59:35;101762.84;;;10.04;36.77
56713;BME280;42589;45.536;9.032;2023-02-13T06:02:36;101761.69;;;10.35;35.73
56713;BME280;42589;45.536;9.032;2023-02-13T06:05:36;101776.59;;;10.38;35.58
56713;BME280;42589;45.536;9.032;2023-02-13T06:08:37;101770.09;;;10.29;36.15
56713;BME280;42589;45.536;9.032;2023-02-13T06:11:38;101743.88;;;10.23;35.59
56713;BME280;42589;45.536;9.032;2023-02-13T06:14:39;101757.66;;;10.42;36.43
56713;BME280;42589;45.536;9.032;2023-02-13T06:17:41;101773.41;;;10.45;35.70
56713;BME280;42589;45.536;9.032;2023-02-13T06:20:41;101776.63;;;10.51;35.92
56713;BME280;42589;45.536;9.032;2023-02-13T06:23:43;101786.63;;;10.60;35.43
56713;BME280;42589;45.536;9.032;2023-02-13T06:26:44;101777.22;;;10.29;35.81
56713;BME280;42589;45.536;9.032;2023-02-13T06:29:44;101782.97;;;10.21;36.54
56713;BME280;42589;45.536;9.032;2023-02-13T06:32:47;101784.41;;;10.27;35.91
56713;BME280;42589;45.536;9.032;2023-02-13T06:35:47;101782.97;;;10.35;36.00
56713;BME280;42589;45.536;9.032;2023-02-13T06:38:48;101783.84;;;10.49;36.04
56713;BME280;42589;45.536;9.032;2023-02-13T06:41:50;101789.88;;;10.11;36.52
56713;BME280;42589;45.536;9.032;2023-02-13T06:44:51;101781.34;;;10.33;35.83
56713;BME280;42589;45.536;9.032;2023-02-13T06:47:53;101787.84;;;10.29;36.43
56713;BME280;42589;45.536;9.032;2023-02-13T06:50:54;101773.47;;;10.04;37.00
56713;BME280;42589;45.536;9.032;2023-02-13T06:53:55;101775.53;;;10.40;36.41
56713;BME280;42589;45.536;9.032;2023-02-13T06:56:59;101785.53;;;10.50;36.00
56713;BME280;42589;45.536;9.032;2023-02-13T07:00:00;101802.06;;;10.67;35.89
56713;BME280;42589;45.536;9.032;2023-02-13T07:03:07;101806.44;;;10.29;36.48
56713;BME280;42589;45.536;9.032;2023-02-13T07:06:09;101793.31;;;10.53;36.62
56713;BME280;42589;45.536;9.032;2023-02-13T07:09:10;101800.63;;;10.49;36.66
56713;BME280;42589;45.536;9.032;2023-02-13T07:12:14;101801.00;;;10.57;35.97
56713;BME280;42589;45.536;9.032;2023-02-13T07:15:15;101794.00;;;10.69;35.97
56713;BME280;42589;45.536;9.032;2023-02-13T07:18:15;101805.38;;;10.84;36.01
56713;BME280;42589;45.536;9.032;2023-02-13T07:21:17;101805.72;;;11.05;35.29
56713;BME280;42589;45.536;9.032;2023-02-13T07:24:17;101810.06;;;11.19;34.94
56713;BME280;42589;45.536;9.032;2023-02-13T07:27:18;101808.78;;;11.24;35.15
56713;BME280;42589;45.536;9.032;2023-02-13T07:30:20;101820.19;;;11.39;34.75
56713;BME280;42589;45.536;9.032;2023-02-13T07:33:22;101816.34;;;11.30;35.08
56713;BME280;42589;45.536;9.032;2023-02-13T07:36:22;101819.72;;;11.58;34.75
56713;BME280;42589;45.536;9.032;2023-02-13T07:39:24;101810.09;;;11.68;34.28
56713;BME280;42589;45.536;9.032;2023-02-13T07:42:24;101826.38;;;11.89;34.03
56713;BME280;42589;45.536;9.032;2023-02-13T07:45:29;101824.91;;;11.85;34.82
56713;BME280;42589;45.536;9.032;2023-02-13T07:48:30;101807.75;;;11.63;34.76
56713;BME280;42589;45.536;9.032;2023-02-13T07:51:31;101811.09;;;11.67;34.59
56713;BME280;42589;45.536;9.032;2023-02-13T07:54:32;101818.97;;;12.05;34.07
56713;BME280;42589;45.536;9.032;2023-02-13T07:57:33;101812.78;;;12.29;33.89
56713;BME280;42589;45.536;9.032;2023-02-13T08:00:35;101826.22;;;12.51;33.66
56713;BME280;42589;45.536;9.032;2023-02-13T08:03:36;101794.56;;;12.23;33.99
56713;BME280;42589;45.536;9.032;2023-02-13T08:06:39;101813.03;;;12.61;33.68
56713;BME280;42589;45.536;9.032;2023-02-13T08:09:40;101818.78;;;12.79;33.46
56713;BME280;42589;45.536;9.032;2023-02-13T08:13:01;101833.13;;;12.89;33.21
56713;BME280;42589;45.536;9.032;2023-02-13T08:16:03;101832.41;;;12.98;33.09
56713;BME280;42589;45.536;9.032;2023-02-13T08:19:04;101835.28;;;12.84;33.44
56713;BME280;42589;45.536;9.032;2023-02-13T08:22:06;101843.84;;;13.23;32.78
56713;BME280;42589;45.536;9.032;2023-02-13T08:25:07;101833.28;;;13.10;33.33
56713;BME280;42589;45.536;9.032;2023-02-13T08:28:09;101820.66;;;13.23;32.58
56713;BME280;42589;45.536;9.032;2023-02-13T08:31:11;101827.75;;;13.47;32.68
56713;BME280;42589;45.536;9.032;2023-02-13T08:34:12;101832.47;;;13.66;32.33
56713;BME280;42589;45.536;9.032;2023-02-13T08:37:13;101840.84;;;13.73;32.42
56713;BME280;42589;45.536;9.032;2023-02-13T08:40:14;101831.56;;;13.99;32.17
56713;BME280;42589;45.536;9.032;2023-02-13T08:43:15;101831.63;;;14.20;31.96
56713;BME280;42589;45.536;9.032;2023-02-13T08:46:16;101817.38;;;14.31;31.61
56713;BME280;42589;45.536;9.032;2023-02-13T08:49:20;101825.16;;;14.34;31.51
56713;BME280;42589;45.536;9.032;2023-02-13T08:52:22;101817.97;;;14.88;31.13
56713;BME280;42589;45.536;9.032;2023-02-13T08:55:22;101817.91;;;14.57;31.32
56713;BME280;42589;45.536;9.032;2023-02-13T08:58:23;101811.50;;;14.69;31.04
56713;BME280;42589;45.536;9.032;2023-02-13T09:01:24;101809.09;;;14.66;31.58
56713;BME280;42589;45.536;9.032;2023-02-13T09:04:25;101822.66;;;14.74;32.00
56713;BME280;42589;45.536;9.032;2023-02-13T09:07:27;101822.59;;;14.65;31.90
56713;BME280;42589;45.536;9.032;2023-02-13T09:10:28;101817.25;;;13.89;32.44
56713;BME280;42589;45.536;9.032;2023-02-13T09:13:30;101819.97;;;14.74;32.25
56713;BME280;42589;45.536;9.032;2023-02-13T09:16:32;101814.69;;;14.84;31.72
56713;BME280;42589;45.536;9.032;2023-02-13T09:19:33;101799.81;;;14.91;31.87
56713;BME280;42589;45.536;9.032;2023-02-13T09:22:34;101817.31;;;15.16;31.58
56713;BME280;42589;45.536;9.032;2023-02-13T09:25:36;101808.66;;;15.13;31.11
56713;BME280;42589;45.536;9.032;2023-02-13T09:28:38;101791.47;;;15.15;31.28
56713;BME280;42589;45.536;9.032;2023-02-13T09:31:39;101788.25;;;15.21;31.22
56713;BME280;42589;45.536;9.032;2023-02-13T09:34:40;101802.50;;;15.22;31.41
56713;BME280;42589;45.536;9.032;2023-02-13T09:37:42;101797.63;;;15.37;31.14
56713;BME280;42589;45.536;9.032;2023-02-13T09:40:55;101792.06;;;15.59;31.38
56713;BME280;42589;45.536;9.032;2023-02-13T09:44:10;101818.34;;;15.35;31.15
56713;BME280;42589;45.536;9.032;2023-02-13T09:53:26;101786.69;;;15.49;30.88
56713;BME280;42589;45.536;9.032;2023-02-13T10:06:21;101792.63;;;16.13;30.78
56713;BME280;42589;45.536;9.032;2023-02-13T10:13:46;101813.53;;;16.29;30.18
56713;BME280;42589;45.536;9.032;2023-02-13T10:17:04;101803.66;;;16.39;30.65
56713;BME280;42589;45.536;9.032;2023-02-13T10:20:28;101807.88;;;16.12;30.88
56713;BME280;42589;45.536;9.032;2023-02-13T10:23:43;101806.88;;;16.42;31.32
56713;BME280;42589;45.536;9.032;2023-02-13T10:26:46;101797.00;;;16.14;31.05
56713;BME280;42589;45.536;9.032;2023-02-13T10:30:35;101803.22;;;16.53;30.76
56713;BME280;42589;45.536;9.032;2023-02-13T10:33:25;101781.84;;;16.81;30.45
56713;BME280;42589;45.536;9.032;2023-02-13T10:36:33;101775.63;;;16.70;31.01
56713;BME280;42589;45.536;9.032;2023-02-13T10:39:36;101783.84;;;16.69;30.21
56713;BME280;42589;45.536;9.032;2023-02-13T10:42:44;101772.41;;;16.67;30.27
56713;BME280;42589;45.536;9.032;2023-02-13T10:46:02;101782.97;;;17.35;30.01
56713;BME280;42589;45.536;9.032;2023-02-13T10:55:50;101770.47;;;17.16;30.12
56713;BME280;42589;45.536;9.032;2023-02-13T10:59:07;101774.28;;;17.51;29.54
56713;BME280;42589;45.536;9.032;2023-02-13T11:02:27;101764.63;;;17.76;29.33
56713;BME280;42589;45.536;9.032;2023-02-13T11:05:36;101755.06;;;17.91;29.53
56713;BME280;42589;45.536;9.032;2023-02-13T11:08:42;101755.78;;;17.66;29.96
56713;BME280;42589;45.536;9.032;2023-02-13T11:11:45;101756.47;;;17.95;28.75
56713;BME280;42589;45.536;9.032;2023-02-13T11:14:57;101746.00;;;17.64;30.46
56713;BME280;42589;45.536;9.032;2023-02-13T11:18:18;101734.25;;;17.48;30.12
56713;BME280;42589;45.536;9.032;2023-02-13T11:21:22;101748.88;;;17.35;30.09
56713;BME280;42589;45.536;9.032;2023-02-13T11:24:34;101741.03;;;18.41;28.75
56713;BME280;42589;45.536;9.032;2023-02-13T11:27:37;101730.94;;;17.99;29.06
56713;BME280;42589;45.536;9.032;2023-02-13T11:30:39;101719.59;;;18.14;29.02
56713;BME280;42589;45.536;9.032;2023-02-13T11:33:40;101740.28;;;18.31;29.46
56713;BME280;42589;45.536;9.032;2023-02-13T11:36:41;101721.25;;;18.06;28.73
56713;BME280;42589;45.536;9.032;2023-02-13T11:39:43;101715.94;;;18.15;28.89
56713;BME280;42589;45.536;9.032;2023-02-13T11:42:45;101726.94;;;18.21;29.43
56713;BME280;42589;45.536;9.032;2023-02-13T11:46:00;101707.19;;;18.65;28.66
56713;BME280;42589;45.536;9.032;2023-02-13T11:49:04;101709.47;;;18.51;28.69
56713;BME280;42589;45.536;9.032;2023-02-13T11:52:26;101705.44;;;18.73;28.60
56713;BME280;42589;45.536;9.032;2023-02-13T11:55:33;101722.44;;;18.74;28.62
56713;BME280;42589;45.536;9.032;2023-02-13T11:58:35;101703.41;;;18.49;29.11
56713;BME280;42589;45.536;9.032;2023-02-13T12:01:35;101707.91;;;18.67;28.63
56713;BME280;42589;45.536;9.032;2023-02-13T12:04:36;101702.19;;;18.18;29.17
56713;BME280;42589;45.536;9.032;2023-02-13T12:07:37;101712.06;;;18.61;29.26
56713;BME280;42589;45.536;9.032;2023-02-13T12:10:39;101704.38;;;18.04;29.25
56713;BME280;42589;45.536;9.032;2023-02-13T12:13:42;101696.41;;;18.65;28.54
56713;BME280;42589;45.536;9.032;2023-02-13T12:17:11;101710.88;;;18.82;28.50
56713;BME280;42589;45.536;9.032;2023-02-13T12:20:15;101685.03;;;18.45;28.86
56713;BME280;42589;45.536;9.032;2023-02-13T12:26:43;101671.19;;;18.92;28.42
56713;BME280;42589;45.536;9.032;2023-02-13T12:36:57;101667.91;;;18.54;29.21
56713;BME280;42589;45.536;9.032;2023-02-13T12:47:21;101639.22;;;18.71;28.29
56713;BME280;42589;45.536;9.032;2023-02-13T13:00:37;101639.78;;;19.25;27.92
56713;BME280;42589;45.536;9.032;2023-02-13T13:10:45;101629.22;;;19.32;27.96
56713;BME280;42589;45.536;9.032;2023-02-13T13:24:12;101600.31;;;18.99;28.54
56713;BME280;42589;45.536;9.032;2023-02-13T13:27:26;101605.34;;;18.94;28.41
56713;BME280;42589;45.536;9.032;2023-02-13T13:30:31;101594.34;;;19.38;27.70
56713;BME280;42589;45.536;9.032;2023-02-13T13:33:34;101595.00;;;19.32;27.87
56713;BME280;42589;45.536;9.032;2023-02-13T13:36:56;101599.44;;;19.74;27.59
56713;BME280;42589;45.536;9.032;2023-02-13T13:40:41;101598.78;;;19.80;27.76
56713;BME280;42589;45.536;9.032;2023-02-13T13:50:30;101590.00;;;19.86;26.92
56713;BME280;42589;45.536;9.032;2023-02-13T13:53:32;101585.63;;;19.77;27.25
56713;BME280;42589;45.536;9.032;2023-02-13T14:03:23;101587.63;;;20.08;27.13
56713;BME280;42589;45.536;9.032;2023-02-13T14:06:25;101585.44;;;19.95;26.92
56713;BME280;42589;45.536;9.032;2023-02-13T14:18:44;101565.00;;;19.60;27.46
56713;BME280;42589;45.536;9.032;2023-02-13T14:21:46;101560.31;;;19.45;26.96
56713;BME280;42589;45.536;9.032;2023-02-13T14:25:00;101567.34;;;19.30;27.27
56713;BME280;42589;45.536;9.032;2023-02-13T14:28:03;101552.25;;;18.87;27.68
56713;BME280;42589;45.536;9.032;2023-02-13T14:31:22;101566.88;;;20.00;26.74
56713;BME280;42589;45.536;9.032;2023-02-13T14:34:28;101551.84;;;19.98;26.78
56713;BME280;42589;45.536;9.032;2023-02-13T14:37:34;101566.88;;;19.76;27.33
56713;BME280;42589;45.536;9.032;2023-02-13T14:40:47;101553.41;;;19.92;27.13
56713;BME280;42589;45.536;9.032;2023-02-13T14:43:51;101563.88;;;19.95;27.41
56713;BME280;42589;45.536;9.032;2023-02-13T14:46:54;101530.31;;;19.89;26.96
56713;BME280;42589;45.536;9.032;2023-02-13T14:49:58;101540.88;;;20.15;27.03
56713;BME280;42589;45.536;9.032;2023-02-13T14:53:04;101534.94;;;20.20;26.85
56713;BME280;42589;45.536;9.032;2023-02-13T14:56:12;101523.16;;;20.13;26.81
56713;BME280;42589;45.536;9.032;2023-02-13T14:59:17;101526.47;;;20.23;26.77
56713;BME280;42589;45.536;9.032;2023-02-13T15:02:41;101529.41;;;20.05;27.19
56713;BME280;42589;45.536;9.032;2023-02-13T15:05:49;101532.94;;;20.14;26.86
56713;BME280;42589;45.536;9.032;2023-02-13T15:08:54;101546.28;;;20.07;26.93
56713;BME280;42589;45.536;9.032;2023-02-13T15:11:56;101551.00;;;20.05;27.11
56713;BME280;42589;45.536;9.032;2023-02-13T15:14:58;101525.16;;;20.19;26.58
56713;BME280;42589;45.536;9.032;2023-02-13T15:18:06;101529.41;;;20.05;26.83
56713;BME280;42589;45.536;9.032;2023-02-13T15:21:14;101531.09;;;20.06;27.24
56713;BME280;42589;45.536;9.032;2023-02-13T15:24:16;101528.44;;;19.90;27.27
56713;BME280;42589;45.536;9.032;2023-02-13T15:27:19;101530.31;;;19.81;27.10
56713;BME280;42589;45.536;9.032;2023-02-13T15:30:24;101532.97;;;20.06;27.18
56713;BME280;42589;45.536;9.032;2023-02-13T15:33:32;101518.97;;;20.02;27.07
56713;BME280;42589;45.536;9.032;2023-02-13T15:36:41;101530.75;;;20.17;26.81
56713;BME280;42589;45.536;9.032;2023-02-13T15:39:41;101522.72;;;19.77;27.21
56713;BME280;42589;45.536;9.032;2023-02-13T15:42:42;101520.19;;;19.83;27.29
56713;BME280;42589;45.536;9.032;2023-02-13T15:45:43;101520.34;;;19.82;27.07
56713;BME280;42589;45.536;9.032;2023-02-13T15:48:44;101531.81;;;19.76;27.43
56713;BME280;42589;45.536;9.032;2023-02-13T15:51:46;101524.25;;;19.79;26.97
56713;BME280;42589;45.536;9.032;2023-02-13T15:54:52;101532.34;;;19.71;27.47
56713;BME280;42589;45.536;9.032;2023-02-13T15:57:56;101530.47;;;19.55;27.47
56713;BME280;42589;45.536;9.032;2023-02-13T16:01:05;101520.84;;;19.61;27.68
56713;BME280;42589;45.536;9.032;2023-02-13T16:04:09;101514.59;;;19.28;27.84
56713;BME280;42589;45.536;9.032;2023-02-13T16:07:14;101533.50;;;19.93;27.53
56713;BME280;42589;45.536;9.032;2023-02-13T16:10:26;101541.78;;;19.51;27.82
56713;BME280;42589;45.536;9.032;2023-02-13T16:13:27;101525.06;;;19.22;28.12
56713;BME280;42589;45.536;9.032;2023-02-13T16:19:56;101539.38;;;19.31;28.08
56713;BME280;42589;45.536;9.032;2023-02-13T16:23:15;101529.63;;;19.38;27.75
56713;BME280;42589;45.536;9.032;2023-02-13T16:26:18;101545.63;;;19.23;28.02
56713;BME280;42589;45.536;9.032;2023-02-13T16:29:21;101521.31;;;18.99;28.27
56713;BME280;42589;45.536;9.032;2023-02-13T16:32:29;101532.28;;;19.14;28.22
56713;BME280;42589;45.536;9.032;2023-02-13T16:38:51;101541.16;;;18.82;28.84
56713;BME280;42589;45.536;9.032;2023-02-13T16:42:16;101515.63;;;18.60;28.90
56713;BME280;42589;45.536;9.032;2023-02-13T16:45:26;101518.78;;;18.47;29.06
56713;BME280;42589;45.536;9.032;2023-02-13T16:48:27;101537.47;;;18.48;29.19
56713;BME280;42589;45.536;9.032;2023-02-13T16:54:59;101553.06;;;18.37;29.51
56713;BME280;42589;45.536;9.032;2023-02-13T16:58:04;101540.81;;;18.08;30.07
56713;BME280;42589;45.536;9.032;2023-02-13T17:01:06;101540.47;;;17.85;30.32
56713;BME280;42589;45.536;9.032;2023-02-13T17:04:18;101552.63;;;17.89;30.53
56713;BME280;42589;45.536;9.032;2023-02-13T17:07:25;101538.22;;;17.54;30.48
56713;BME280;42589;45.536;9.032;2023-02-13T17:10:35;101553.63;;;17.52;30.69
56713;BME280;42589;45.536;9.032;2023-02-13T17:13:35;101550.81;;;17.36;31.21
56713;BME280;42589;45.536;9.032;2023-02-13T17:16:36;101545.13;;;17.21;31.07
56713;BME280;42589;45.536;9.032;2023-02-13T17:19:37;101554.09;;;17.12;31.60
56713;BME280;42589;45.536;9.032;2023-02-13T17:22:41;101560.69;;;17.00;31.61
56713;BME280;42589;45.536;9.032;2023-02-13T17:25:43;101563.94;;;17.03;31.49
56713;BME280;42589;45.536;9.032;2023-02-13T17:28:47;101560.19;;;16.86;31.76
56713;BME280;42589;45.536;9.032;2023-02-13T17:31:51;101562.81;;;16.78;32.14
56713;BME280;42589;45.536;9.032;2023-02-13T17:34:54;101587.38;;;16.74;32.33
56713;BME280;42589;45.536;9.032;2023-02-13T17:37:55;101583.06;;;16.63;32.58
56713;BME280;42589;45.536;9.032;2023-02-13T17:40:59;101573.63;;;16.59;32.85
56713;BME280;42589;45.536;9.032;2023-02-13T17:44:00;101572.50;;;16.52;32.98
56713;BME280;42589;45.536;9.032;2023-02-13T17:47:01;101586.75;;;16.52;33.14
56713;BME280;42589;45.536;9.032;2023-02-13T17:50:02;101589.66;;;16.41;33.11
56713;BME280;42589;45.536;9.032;2023-02-13T17:53:06;101583.03;;;16.35;33.62
56713;BME280;42589;45.536;9.032;2023-02-13T17:56:07;101576.72;;;16.17;33.83
56713;BME280;42589;45.536;9.032;2023-02-13T17:59:08;101577.28;;;16.11;33.73
56713;BME280;42589;45.536;9.032;2023-02-13T18:02:12;101593.00;;;16.06;33.93
56713;BME280;42589;45.536;9.032;2023-02-13T18:05:14;101574.41;;;15.85;34.01
56713;BME280;42589;45.536;9.032;2023-02-13T18:08:16;101573.13;;;15.69;33.83
56713;BME280;42589;45.536;9.032;2023-02-13T18:11:17;101598.81;;;15.82;33.82
56713;BME280;42589;45.536;9.032;2023-02-13T18:14:17;101585.03;;;15.67;33.87
56713;BME280;42589;45.536;9.032;2023-02-13T18:17:19;101589.34;;;15.58;34.15
56713;BME280;42589;45.536;9.032;2023-02-13T18:20:20;101592.16;;;15.56;34.23
56713;BME280;42589;45.536;9.032;2023-02-13T18:23:21;101609.69;;;15.61;34.67
56713;BME280;42589;45.536;9.032;2023-02-13T18:26:23;101611.19;;;15.53;34.66
56713;BME280;42589;45.536;9.032;2023-02-13T18:29:24;101607.69;;;15.43;34.64
56713;BME280;42589;45.536;9.032;2023-02-13T18:32:26;101567.75;;;15.21;34.68
56713;BME280;42589;45.536;9.032;2023-02-13T18:35:26;101602.88;;;15.47;34.70
56713;BME280;42589;45.536;9.032;2023-02-13T18:38:28;101581.59;;;15.26;35.04